sensor_id;sensor_type;location;lat;lon;timestamp;pressure;altitude;pressure_sealevel;temperature;humidity
74675;BME280;63200;48.810;12.352;2023-06-14T00:01:40;97057.06;;;10.31;59.27
74675;BME280;63200;48.810;12.352;2023-06-14T00:04:05;97059.75;;;10.31;59.41
74675;BME280;63200;48.810;12.352;2023-06-14T00:06:33;97050.00;;;10.30;59.08
74675;BME280;63200;48.810;12.352;2023-06-14T00:08:59;97057.41;;;10.24;59.53
74675;BME280;63200;48.810;12.352;2023-06-14T00:11:24;97060.50;;;10.17;59.49
74675;BME280;63200;48.810;12.352;2023-06-14T00:13:51;97060.75;;;10.16;59.52
74675;BME280;63200;48.810;12.352;2023-06-14T00:16:17;97056.81;;;10.08;59.51
74675;BME280;63200;48.810;12.352;2023-06-14T00:18:42;97067.50;;;9.99;59.84
74675;BME280;63200;48.810;12.352;2023-06-14T00:21:08;97059.97;;;9.96;60.18
74675;BME280;63200;48.810;12.352;2023-06-14T00:23:35;97062.97;;;9.95;60.31
74675;BME280;63200;48.810;12.352;2023-06-14T00:26:00;97062.72;;;9.91;60.80
74675;BME280;63200;48.810;12.352;2023-06-14T00:28:25;97057.66;;;9.84;61.19
74675;BME280;63200;48.810;12.352;2023-06-14T00:30:51;97053.31;;;9.83;61.89
74675;BME280;63200;48.810;12.352;2023-06-14T00:33:16;97048.44;;;9.86;62.05
74675;BME280;63200;48.810;12.352;2023-06-14T00:35:41;97054.41;;;9.82;62.12
74675;BME280;63200;48.810;12.352;2023-06-14T00:38:07;97049.59;;;9.79;62.07
74675;BME280;63200;48.810;12.352;2023-06-14T00:40:32;97057.19;;;9.77;61.72
74675;BME280;63200;48.810;12.352;2023-06-14T00:42:57;97041.88;;;9.67;62.18
74675;BME280;63200;48.810;12.352;2023-06-14T00:45:23;97052.22;;;9.60;62.13
74675;BME280;63200;48.810;12.352;2023-06-14T00:47:49;97048.50;;;9.56;62.31
74675;BME280;63200;48.810;12.352;2023-06-14T00:50:18;97043.75;;;9.43;62.34
74675;BME280;63200;48.810;12.352;2023-06-14T00:52:45;97036.56;;;9.33;62.88
74675;BME280;63200;48.810;12.352;2023-06-14T00:55:10;97047.41;;;9.33;63.54
74675;BME280;63200;48.810;12.352;2023-06-14T00:57:36;97051.47;;;9.30;63.51
74675;BME280;63200;48.810;12.352;2023-06-14T01:00:03;97042.03;;;9.28;63.88
74675;BME280;63200;48.810;12.352;2023-06-14T01:02:29;97040.16;;;9.23;63.69
74675;BME280;63200;48.810;12.352;2023-06-14T01:04:55;97045.88;;;9.22;64.00
74675;BME280;63200;48.810;12.352;2023-06-14T01:10:29;97050.53;;;9.16;64.91
74675;BME280;63200;48.810;12.352;2023-06-14T01:13:15;97050.81;;;9.14;65.27
74675;BME280;63200;48.810;12.352;2023-06-14T01:15:45;97044.91;;;9.07;65.31
74675;BME280;63200;48.810;12.352;2023-06-14T01:18:12;97054.66;;;9.08;65.12
74675;BME280;63200;48.810;12.352;2023-06-14T01:20:43;97055.22;;;9.10;64.79
74675;BME280;63200;48.810;12.352;2023-06-14T01:23:10;97054.91;;;9.12;64.84
74675;BME280;63200;48.810;12.352;2023-06-14T01:25:37;97050.59;;;9.11;64.51
74675;BME280;63200;48.810;12.352;2023-06-14T01:28:05;97006.53;;;8.76;64.64
74675;BME280;63200;48.810;12.352;2023-06-14T01:30:39;97039.88;;;8.95;65.09
74675;BME280;63200;48.810;12.352;2023-06-14T01:33:14;97052.72;;;8.84;66.01
74675;BME280;63200;48.810;12.352;2023-06-14T01:35:45;97053.25;;;8.87;65.54
74675;BME280;63200;48.810;12.352;2023-06-14T01:38:12;97048.97;;;8.80;66.03
74675;BME280;63200;48.810;12.352;2023-06-14T01:40:39;97021.16;;;8.70;65.78
74675;BME280;63200;48.810;12.352;2023-06-14T01:43:05;97046.22;;;8.86;65.50
74675;BME280;63200;48.810;12.352;2023-06-14T01:45:31;97042.50;;;8.76;65.45
74675;BME280;63200;48.810;12.352;2023-06-14T01:47:57;97049.53;;;8.77;65.26
74675;BME280;63200;48.810;12.352;2023-06-14T01:50:23;97048.00;;;8.66;64.91
74675;BME280;63200;48.810;12.352;2023-06-14T01:52:48;97047.84;;;8.52;65.05
74675;BME280;63200;48.810;12.352;2023-06-14T01:55:13;97044.59;;;8.45;65.95
74675;BME280;63200;48.810;12.352;2023-06-14T01:57:39;97047.03;;;8.46;66.48
74675;BME280;63200;48.810;12.352;2023-06-14T02:00:05;97040.03;;;8.45;66.56
74675;BME280;63200;48.810;12.352;2023-06-14T02:02:37;97052.72;;;8.40;66.49
74675;BME280;63200;48.810;12.352;2023-06-14T02:05:03;97051.41;;;8.37;66.52
74675;BME280;63200;48.810;12.352;2023-06-14T02:07:29;97055.75;;;8.33;66.88
74675;BME280;63200;48.810;12.352;2023-06-14T02:09:54;97053.63;;;8.30;67.11
74675;BME280;63200;48.810;12.352;2023-06-14T02:12:20;97010.28;;;7.95;67.23
74675;BME280;63200;48.810;12.352;2023-06-14T02:14:45;97057.47;;;8.13;67.42
74675;BME280;63200;48.810;12.352;2023-06-14T02:17:10;97059.41;;;8.08;67.23
74675;BME280;63200;48.810;12.352;2023-06-14T02:19:35;97063.47;;;8.05;67.27
74675;BME280;63200;48.810;12.352;2023-06-14T02:22:01;97054.28;;;8.06;67.00
74675;BME280;63200;48.810;12.352;2023-06-14T02:24:26;97050.75;;;8.11;66.76
74675;BME280;63200;48.810;12.352;2023-06-14T02:26:52;97053.44;;;8.11;66.87
74675;BME280;63200;48.810;12.352;2023-06-14T02:29:17;97051.56;;;8.11;66.54
74675;BME280;63200;48.810;12.352;2023-06-14T02:31:42;97064.00;;;8.12;66.06
74675;BME280;63200;48.810;12.352;2023-06-14T02:34:08;97063.47;;;8.10;65.84
74675;BME280;63200;48.810;12.352;2023-06-14T02:36:34;97067.53;;;8.08;66.36
74675;BME280;63200;48.810;12.352;2023-06-14T02:39:00;97056.75;;;8.03;66.42
74675;BME280;63200;48.810;12.352;2023-06-14T02:41:25;97047.38;;;7.84;66.52
74675;BME280;63200;48.810;12.352;2023-06-14T02:43:51;97053.59;;;7.80;66.85
74675;BME280;63200;48.810;12.352;2023-06-14T02:46:17;97013.53;;;7.37;66.88
74675;BME280;63200;48.810;12.352;2023-06-14T02:48:42;97060.16;;;7.63;67.09
74675;BME280;63200;48.810;12.352;2023-06-14T02:51:07;97022.16;;;7.34;67.21
74675;BME280;63200;48.810;12.352;2023-06-14T02:53:35;97052.59;;;7.55;67.57
74675;BME280;63200;48.810;12.352;2023-06-14T02:56:01;97059.66;;;7.51;67.56
74675;BME280;63200;48.810;12.352;2023-06-14T02:58:28;97064.25;;;7.50;67.22
74675;BME280;63200;48.810;12.352;2023-06-14T03:00:53;97069.66;;;7.50;67.24
74675;BME280;63200;48.810;12.352;2023-06-14T03:03:18;97065.31;;;7.49;67.68
74675;BME280;63200;48.810;12.352;2023-06-14T03:05:46;97059.66;;;7.51;67.53
74675;BME280;63200;48.810;12.352;2023-06-14T03:08:13;97060.72;;;7.50;67.60
74675;BME280;63200;48.810;12.352;2023-06-14T03:10:45;97067.22;;;7.49;67.93
74675;BME280;63200;48.810;12.352;2023-06-14T03:13:10;97068.03;;;7.49;68.06
74675;BME280;63200;48.810;12.352;2023-06-14T03:15:36;97063.69;;;7.54;67.93
74675;BME280;63200;48.810;12.352;2023-06-14T03:18:01;97073.97;;;7.52;67.86
74675;BME280;63200;48.810;12.352;2023-06-14T03:20:28;97071.00;;;7.48;68.35
74675;BME280;63200;48.810;12.352;2023-06-14T03:22:58;97078.81;;;7.55;68.58
74675;BME280;63200;48.810;12.352;2023-06-14T03:25:23;97073.13;;;7.61;68.10
74675;BME280;63200;48.810;12.352;2023-06-14T03:27:49;97083.13;;;7.66;67.96
74675;BME280;63200;48.810;12.352;2023-06-14T03:30:14;97085.28;;;7.64;67.59
74675;BME280;63200;48.810;12.352;2023-06-14T03:32:39;97085.84;;;7.56;68.12
74675;BME280;63200;48.810;12.352;2023-06-14T03:35:05;97094.47;;;7.58;68.17
74675;BME280;63200;48.810;12.352;2023-06-14T03:37:31;97095.31;;;7.53;68.14
74675;BME280;63200;48.810;12.352;2023-06-14T03:39:56;97087.72;;;7.50;68.32
74675;BME280;63200;48.810;12.352;2023-06-14T03:42:21;97090.69;;;7.54;68.28
74675;BME280;63200;48.810;12.352;2023-06-14T03:44:48;97037.31;;;7.20;68.35
74675;BME280;63200;48.810;12.352;2023-06-14T03:47:13;97102.06;;;7.56;68.48
74675;BME280;63200;48.810;12.352;2023-06-14T03:49:38;97097.44;;;7.61;68.48
74675;BME280;63200;48.810;12.352;2023-06-14T03:52:04;97028.94;;;7.26;68.11
74675;BME280;63200;48.810;12.352;2023-06-14T03:54:30;97095.78;;;7.76;67.94
74675;BME280;63200;48.810;12.352;2023-06-14T03:56:57;97076.88;;;7.71;68.14
74675;BME280;63200;48.810;12.352;2023-06-14T03:59:23;97104.34;;;7.93;68.10
74675;BME280;63200;48.810;12.352;2023-06-14T04:01:48;97110.81;;;8.03;67.45
74675;BME280;63200;48.810;12.352;2023-06-14T04:04:14;97066.81;;;7.87;67.05
74675;BME280;63200;48.810;12.352;2023-06-14T04:06:41;97121.75;;;8.32;66.90
74675;BME280;63200;48.810;12.352;2023-06-14T04:09:07;97116.03;;;8.39;66.54
74675;BME280;63200;48.810;12.352;2023-06-14T04:11:33;97114.91;;;8.45;66.17
74675;BME280;63200;48.810;12.352;2023-06-14T04:13:59;97099.25;;;8.42;66.08
74675;BME280;63200;48.810;12.352;2023-06-14T04:16:24;97119.66;;;8.74;65.32
74675;BME280;63200;48.810;12.352;2023-06-14T04:18:50;97073.31;;;8.80;64.46
74675;BME280;63200;48.810;12.352;2023-06-14T04:21:17;97126.31;;;9.21;63.68
74675;BME280;63200;48.810;12.352;2023-06-14T04:23:42;97126.38;;;9.16;64.20
74675;BME280;63200;48.810;12.352;2023-06-14T04:26:09;97128.75;;;9.23;63.99
74675;BME280;63200;48.810;12.352;2023-06-14T04:28:36;97099.09;;;9.07;63.68
74675;BME280;63200;48.810;12.352;2023-06-14T04:31:08;97138.66;;;9.32;64.02
74675;BME280;63200;48.810;12.352;2023-06-14T04:33:37;97129.41;;;9.39;63.63
74675;BME280;63200;48.810;12.352;2023-06-14T04:36:11;97124.34;;;9.32;64.12
74675;BME280;63200;48.810;12.352;2023-06-14T04:38:38;97131.84;;;9.40;63.87
74675;BME280;63200;48.810;12.352;2023-06-14T04:41:03;97131.75;;;9.50;64.11
74675;BME280;63200;48.810;12.352;2023-06-14T04:43:29;97138.41;;;9.63;63.78
74675;BME280;63200;48.810;12.352;2023-06-14T04:45:54;97125.84;;;9.73;64.00
74675;BME280;63200;48.810;12.352;2023-06-14T04:48:22;97128.16;;;9.84;63.34
74675;BME280;63200;48.810;12.352;2023-06-14T04:50:47;97133.19;;;9.96;63.08
74675;BME280;63200;48.810;12.352;2023-06-14T04:53:13;97130.06;;;10.08;63.22
74675;BME280;63200;48.810;12.352;2023-06-14T04:55:38;97139.38;;;10.21;63.00
74675;BME280;63200;48.810;12.352;2023-06-14T04:58:04;97133.81;;;10.31;63.20
74675;BME280;63200;48.810;12.352;2023-06-14T05:00:30;97138.78;;;10.48;62.86
74675;BME280;63200;48.810;12.352;2023-06-14T05:02:55;97125.09;;;10.59;63.47
74675;BME280;63200;48.810;12.352;2023-06-14T05:05:22;97128.69;;;10.73;63.60
74675;BME280;63200;48.810;12.352;2023-06-14T05:07:47;97079.00;;;10.54;63.61
74675;BME280;63200;48.810;12.352;2023-06-14T05:10:13;97134.09;;;11.11;63.01
74675;BME280;63200;48.810;12.352;2023-06-14T05:12:38;97098.94;;;11.15;62.35
74675;BME280;63200;48.810;12.352;2023-06-14T05:15:04;97126.63;;;11.50;61.75
74675;BME280;63200;48.810;12.352;2023-06-14T05:17:30;97130.88;;;11.70;61.43
74675;BME280;63200;48.810;12.352;2023-06-14T05:19:55;97135.03;;;11.81;61.37
74675;BME280;63200;48.810;12.352;2023-06-14T05:22:22;97129.91;;;11.94;61.36
74675;BME280;63200;48.810;12.352;2023-06-14T05:24:47;97125.88;;;12.05;61.48
74675;BME280;63200;48.810;12.352;2023-06-14T05:27:13;97143.53;;;12.22;60.86
74675;BME280;63200;48.810;12.352;2023-06-14T05:29:38;97143.81;;;12.34;60.46
74675;BME280;63200;48.810;12.352;2023-06-14T05:32:04;97103.50;;;12.22;60.02
74675;BME280;63200;48.810;12.352;2023-06-14T05:34:30;97153.34;;;12.73;59.74
74675;BME280;63200;48.810;12.352;2023-06-14T05:36:55;97151.88;;;12.90;59.37
74675;BME280;63200;48.810;12.352;2023-06-14T05:39:20;97152.03;;;13.07;58.69
74675;BME280;63200;48.810;12.352;2023-06-14T05:41:46;97168.19;;;13.26;58.79
74675;BME280;63200;48.810;12.352;2023-06-14T05:44:11;97166.34;;;13.36;59.76
74675;BME280;63200;48.810;12.352;2023-06-14T05:46:36;97160.47;;;13.42;59.62
74675;BME280;63200;48.810;12.352;2023-06-14T05:49:02;97168.28;;;13.58;59.27
74675;BME280;63200;48.810;12.352;2023-06-14T05:51:27;97164.53;;;13.76;58.31
74675;BME280;63200;48.810;12.352;2023-06-14T05:53:52;97169.16;;;13.98;57.52
74675;BME280;63200;48.810;12.352;2023-06-14T05:56:18;97171.31;;;14.19;56.63
74675;BME280;63200;48.810;12.352;2023-06-14T05:58:45;97175.22;;;14.36;56.28
74675;BME280;63200;48.810;12.352;2023-06-14T06:01:10;97170.78;;;14.57;55.75
74675;BME280;63200;48.810;12.352;2023-06-14T06:03:36;97170.22;;;14.78;54.90
74675;BME280;63200;48.810;12.352;2023-06-14T06:06:01;97168.94;;;14.93;53.69
74675;BME280;63200;48.810;12.352;2023-06-14T06:08:28;97142.06;;;14.95;53.29
74675;BME280;63200;48.810;12.352;2023-06-14T06:10:53;97164.41;;;15.41;52.45
74675;BME280;63200;48.810;12.352;2023-06-14T06:13:19;97178.84;;;15.68;51.62
74675;BME280;63200;48.810;12.352;2023-06-14T06:15:44;97174.97;;;15.86;50.56
74675;BME280;63200;48.810;12.352;2023-06-14T06:18:10;97184.44;;;15.97;50.18
74675;BME280;63200;48.810;12.352;2023-06-14T06:20:35;97179.41;;;16.08;50.71
74675;BME280;63200;48.810;12.352;2023-06-14T06:23:01;97178.53;;;16.25;50.14
74675;BME280;63200;48.810;12.352;2023-06-14T06:25:27;97183.31;;;16.37;49.87
74675;BME280;63200;48.810;12.352;2023-06-14T06:27:53;97182.75;;;16.53;49.98
74675;BME280;63200;48.810;12.352;2023-06-14T06:30:19;97180.59;;;16.67;49.40
74675;BME280;63200;48.810;12.352;2023-06-14T06:32:45;97189.56;;;16.76;49.24
74675;BME280;63200;48.810;12.352;2023-06-14T06:35:11;97191.56;;;16.88;48.59
74675;BME280;63200;48.810;12.352;2023-06-14T06:37:37;97191.69;;;17.01;48.90
74675;BME280;63200;48.810;12.352;2023-06-14T06:40:02;97193.50;;;17.18;48.33
74675;BME280;63200;48.810;12.352;2023-06-14T06:42:31;97201.91;;;17.34;48.13
74675;BME280;63200;48.810;12.352;2023-06-14T06:44:57;97190.78;;;17.30;47.15
74675;BME280;63200;48.810;12.352;2023-06-14T06:47:22;97201.09;;;17.33;47.56
74675;BME280;63200;48.810;12.352;2023-06-14T06:49:47;97204.16;;;17.53;47.33
74675;BME280;63200;48.810;12.352;2023-06-14T06:52:13;97204.50;;;17.85;47.00
74675;BME280;63200;48.810;12.352;2023-06-14T06:54:39;97207.66;;;17.95;46.20
74675;BME280;63200;48.810;12.352;2023-06-14T06:57:04;97205.41;;;18.22;46.92
74675;BME280;63200;48.810;12.352;2023-06-14T06:59:31;97209.44;;;18.50;45.77
74675;BME280;63200;48.810;12.352;2023-06-14T07:01:56;97211.59;;;18.81;45.33
74675;BME280;63200;48.810;12.352;2023-06-14T07:04:22;97212.41;;;18.94;44.32
74675;BME280;63200;48.810;12.352;2023-06-14T07:06:47;97206.56;;;19.08;43.71
74675;BME280;63200;48.810;12.352;2023-06-14T07:09:13;97213.16;;;19.31;43.54
74675;BME280;63200;48.810;12.352;2023-06-14T07:11:40;97211.38;;;19.39;42.78
74675;BME280;63200;48.810;12.352;2023-06-14T07:14:06;97214.38;;;19.46;42.91
74675;BME280;63200;48.810;12.352;2023-06-14T07:16:32;97208.38;;;19.85;43.12
74675;BME280;63200;48.810;12.352;2023-06-14T07:18:57;97215.88;;;20.01;41.07
74675;BME280;63200;48.810;12.352;2023-06-14T07:21:22;97213.13;;;20.17;40.26
74675;BME280;63200;48.810;12.352;2023-06-14T07:23:48;97213.94;;;20.33;38.99
74675;BME280;63200;48.810;12.352;2023-06-14T07:26:13;97226.09;;;20.32;39.35
74675;BME280;63200;48.810;12.352;2023-06-14T07:28:38;97216.72;;;20.81;39.89
74675;BME280;63200;48.810;12.352;2023-06-14T07:31:04;97224.63;;;21.18;38.80
74675;BME280;63200;48.810;12.352;2023-06-14T07:33:29;97227.44;;;21.22;37.54
74675;BME280;63200;48.810;12.352;2023-06-14T07:35:55;97224.69;;;21.57;37.76
74675;BME280;63200;48.810;12.352;2023-06-14T07:38:20;97226.75;;;22.03;36.07
74675;BME280;63200;48.810;12.352;2023-06-14T07:40:46;97227.50;;;22.00;35.61
74675;BME280;63200;48.810;12.352;2023-06-14T07:43:11;97229.50;;;22.03;34.97
74675;BME280;63200;48.810;12.352;2023-06-14T07:45:37;97233.97;;;22.31;36.31
74675;BME280;63200;48.810;12.352;2023-06-14T07:48:02;97231.59;;;22.53;34.39
74675;BME280;63200;48.810;12.352;2023-06-14T07:50:28;97227.03;;;22.64;34.99
74675;BME280;63200;48.810;12.352;2023-06-14T07:52:54;97231.09;;;22.70;33.21
74675;BME280;63200;48.810;12.352;2023-06-14T07:55:19;97236.81;;;22.35;35.50
74675;BME280;63200;48.810;12.352;2023-06-14T07:57:44;97230.28;;;21.80;34.53
74675;BME280;63200;48.810;12.352;2023-06-14T08:00:10;97232.59;;;21.59;35.66
74675;BME280;63200;48.810;12.352;2023-06-14T08:02:43;97231.25;;;22.11;35.49
74675;BME280;63200;48.810;12.352;2023-06-14T08:05:12;97244.16;;;22.46;35.26
74675;BME280;63200;48.810;12.352;2023-06-14T08:07:38;97239.31;;;22.20;35.95
74675;BME280;63200;48.810;12.352;2023-06-14T08:10:05;97245.81;;;22.08;36.77
74675;BME280;63200;48.810;12.352;2023-06-14T08:12:30;97246.22;;;22.53;34.56
74675;BME280;63200;48.810;12.352;2023-06-14T08:14:55;97248.78;;;22.42;34.84
74675;BME280;63200;48.810;12.352;2023-06-14T08:17:21;97241.88;;;22.33;34.74
74675;BME280;63200;48.810;12.352;2023-06-14T08:19:46;97246.91;;;22.96;33.63
74675;BME280;63200;48.810;12.352;2023-06-14T08:22:12;97232.25;;;23.50;33.55
74675;BME280;63200;48.810;12.352;2023-06-14T08:24:38;97212.34;;;24.08;33.48
74675;BME280;63200;48.810;12.352;2023-06-14T08:27:05;97244.03;;;24.49;33.59
74675;BME280;63200;48.810;12.352;2023-06-14T08:29:30;97243.91;;;24.79;32.41
74675;BME280;63200;48.810;12.352;2023-06-14T08:31:56;97242.47;;;24.51;30.89
74675;BME280;63200;48.810;12.352;2023-06-14T08:34:21;97242.94;;;24.57;31.97
74675;BME280;63200;48.810;12.352;2023-06-14T08:36:50;97251.38;;;24.71;30.66
74675;BME280;63200;48.810;12.352;2023-06-14T08:39:16;97245.31;;;24.58;30.76
74675;BME280;63200;48.810;12.352;2023-06-14T08:41:42;97241.53;;;23.95;32.39
74675;BME280;63200;48.810;12.352;2023-06-14T08:44:08;97248.63;;;23.32;32.65
74675;BME280;63200;48.810;12.352;2023-06-14T08:46:33;97242.75;;;22.83;32.94
74675;BME280;63200;48.810;12.352;2023-06-14T08:49:01;97260.78;;;22.50;33.86
74675;BME280;63200;48.810;12.352;2023-06-14T08:51:27;97251.94;;;22.64;34.52
74675;BME280;63200;48.810;12.352;2023-06-14T08:53:59;97261.28;;;23.06;35.62
74675;BME280;63200;48.810;12.352;2023-06-14T08:56:27;97259.72;;;22.82;34.99
74675;BME280;63200;48.810;12.352;2023-06-14T08:58:54;97250.13;;;22.75;34.03
74675;BME280;63200;48.810;12.352;2023-06-14T09:01:20;97254.47;;;22.30;34.69
74675;BME280;63200;48.810;12.352;2023-06-14T09:03:48;97261.91;;;22.26;34.96
74675;BME280;63200;48.810;12.352;2023-06-14T09:06:13;97259.34;;;22.13;35.36
74675;BME280;63200;48.810;12.352;2023-06-14T09:08:41;97257.94;;;22.04;35.76
74675;BME280;63200;48.810;12.352;2023-06-14T09:11:08;97203.22;;;21.51;35.35
74675;BME280;63200;48.810;12.352;2023-06-14T09:13:33;97253.97;;;21.82;35.38
74675;BME280;63200;48.810;12.352;2023-06-14T09:16:00;97251.75;;;22.10;36.76
74675;BME280;63200;48.810;12.352;2023-06-14T09:18:39;97255.94;;;22.24;36.61
74675;BME280;63200;48.810;12.352;2023-06-14T09:21:06;97253.53;;;22.22;36.11
74675;BME280;63200;48.810;12.352;2023-06-14T09:23:40;97259.06;;;22.42;34.63
74675;BME280;63200;48.810;12.352;2023-06-14T09:26:10;97254.53;;;22.53;34.45
74675;BME280;63200;48.810;12.352;2023-06-14T09:28:36;97257.19;;;23.23;33.12
74675;BME280;63200;48.810;12.352;2023-06-14T09:31:07;97262.69;;;23.46;31.35
74675;BME280;63200;48.810;12.352;2023-06-14T09:33:33;97229.63;;;23.30;32.72
74675;BME280;63200;48.810;12.352;2023-06-14T09:35:59;97253.28;;;23.54;32.88
74675;BME280;63200;48.810;12.352;2023-06-14T09:38:24;97264.81;;;23.29;32.56
74675;BME280;63200;48.810;12.352;2023-06-14T09:40:50;97256.66;;;23.13;33.57
74675;BME280;63200;48.810;12.352;2023-06-14T09:43:16;97255.88;;;22.63;29.52
74675;BME280;63200;48.810;12.352;2023-06-14T09:45:42;97265.94;;;22.52;32.45
74675;BME280;63200;48.810;12.352;2023-06-14T09:48:10;97250.53;;;22.51;31.85
74675;BME280;63200;48.810;12.352;2023-06-14T09:50:36;97249.47;;;22.59;32.01
74675;BME280;63200;48.810;12.352;2023-06-14T09:53:11;97254.56;;;22.57;30.61
74675;BME280;63200;48.810;12.352;2023-06-14T09:55:37;97253.88;;;22.63;31.27
74675;BME280;63200;48.810;12.352;2023-06-14T09:58:06;97252.41;;;22.70;30.94
74675;BME280;63200;48.810;12.352;2023-06-14T10:00:33;97252.72;;;22.65;31.93
74675;BME280;63200;48.810;12.352;2023-06-14T10:03:06;97249.34;;;22.52;32.13
74675;BME280;63200;48.810;12.352;2023-06-14T10:05:36;97249.63;;;22.23;31.60
74675;BME280;63200;48.810;12.352;2023-06-14T10:08:08;97254.16;;;22.12;32.09
74675;BME280;63200;48.810;12.352;2023-06-14T10:10:35;97251.72;;;21.87;31.38
74675;BME280;63200;48.810;12.352;2023-06-14T10:13:03;97251.81;;;21.91;31.67
74675;BME280;63200;48.810;12.352;2023-06-14T10:15:31;97243.78;;;22.98;31.05
74675;BME280;63200;48.810;12.352;2023-06-14T10:23:50;97251.03;;;26.31;27.82
74675;BME280;63200;48.810;12.352;2023-06-14T10:26:22;97239.94;;;26.49;25.96
74675;BME280;63200;48.810;12.352;2023-06-14T10:28:59;97246.34;;;26.86;24.60
74675;BME280;63200;48.810;12.352;2023-06-14T10:31:45;97251.44;;;27.34;25.82
74675;BME280;63200;48.810;12.352;2023-06-14T10:34:31;97247.03;;;27.48;26.63
74675;BME280;63200;48.810;12.352;2023-06-14T10:37:15;97192.84;;;27.56;25.54
74675;BME280;63200;48.810;12.352;2023-06-14T10:39:42;97250.19;;;27.64;25.04
74675;BME280;63200;48.810;12.352;2023-06-14T10:42:09;97230.88;;;28.09;26.58
74675;BME280;63200;48.810;12.352;2023-06-14T10:44:45;97240.38;;;28.79;24.66
74675;BME280;63200;48.810;12.352;2023-06-14T10:47:31;97233.28;;;28.64;23.02
74675;BME280;63200;48.810;12.352;2023-06-14T10:52:33;97225.53;;;29.66;22.93
74675;BME280;63200;48.810;12.352;2023-06-14T10:55:14;97231.22;;;29.17;22.15
74675;BME280;63200;48.810;12.352;2023-06-14T11:00:13;97221.44;;;29.39;22.61
74675;BME280;63200;48.810;12.352;2023-06-14T11:10:47;97216.16;;;30.11;21.94
74675;BME280;63200;48.810;12.352;2023-06-14T11:13:12;97221.88;;;28.43;23.09
74675;BME280;63200;48.810;12.352;2023-06-14T11:15:39;97187.03;;;26.89;24.34
74675;BME280;63200;48.810;12.352;2023-06-14T11:18:08;97217.25;;;26.29;26.15
74675;BME280;63200;48.810;12.352;2023-06-14T11:20:37;97230.75;;;25.24;27.08
74675;BME280;63200;48.810;12.352;2023-06-14T11:23:03;97229.56;;;24.66;28.19
74675;BME280;63200;48.810;12.352;2023-06-14T11:25:29;97229.44;;;24.59;28.38
74675;BME280;63200;48.810;12.352;2023-06-14T11:27:55;97234.59;;;24.16;27.65
74675;BME280;63200;48.810;12.352;2023-06-14T11:30:21;97230.19;;;23.77;29.24
74675;BME280;63200;48.810;12.352;2023-06-14T11:32:47;97230.03;;;23.62;29.08
74675;BME280;63200;48.810;12.352;2023-06-14T11:35:13;97236.91;;;23.42;28.90
74675;BME280;63200;48.810;12.352;2023-06-14T11:37:39;97230.25;;;23.20;29.58
74675;BME280;63200;48.810;12.352;2023-06-14T11:40:06;97235.03;;;23.23;31.20
74675;BME280;63200;48.810;12.352;2023-06-14T11:42:36;97232.28;;;23.23;29.85
74675;BME280;63200;48.810;12.352;2023-06-14T11:45:03;97225.56;;;23.24;29.88
74675;BME280;63200;48.810;12.352;2023-06-14T11:47:34;97230.66;;;23.49;29.31
74675;BME280;63200;48.810;12.352;2023-06-14T11:50:01;97224.59;;;23.39;28.85
74675;BME280;63200;48.810;12.352;2023-06-14T11:52:26;97189.69;;;23.35;28.45
74675;BME280;63200;48.810;12.352;2023-06-14T11:54:53;97225.34;;;24.01;29.32
74675;BME280;63200;48.810;12.352;2023-06-14T11:57:18;97207.34;;;25.29;27.68
74675;BME280;63200;48.810;12.352;2023-06-14T11:59:44;97210.03;;;27.29;26.01
74675;BME280;63200;48.810;12.352;2023-06-14T12:02:14;97213.97;;;28.87;24.47
74675;BME280;63200;48.810;12.352;2023-06-14T12:04:43;97206.97;;;29.48;23.62
74675;BME280;63200;48.810;12.352;2023-06-14T12:07:09;97199.44;;;28.54;22.12
74675;BME280;63200;48.810;12.352;2023-06-14T12:09:39;97213.22;;;27.46;24.80
74675;BME280;63200;48.810;12.352;2023-06-14T12:12:05;97213.31;;;26.77;25.34
74675;BME280;63200;48.810;12.352;2023-06-14T12:14:30;97199.66;;;25.85;25.13
74675;BME280;63200;48.810;12.352;2023-06-14T12:17:06;97195.06;;;25.34;25.21
74675;BME280;63200;48.810;12.352;2023-06-14T12:19:32;97213.84;;;24.88;27.57
74675;BME280;63200;48.810;12.352;2023-06-14T12:21:59;97179.41;;;24.03;29.26
74675;BME280;63200;48.810;12.352;2023-06-14T12:24:29;97211.88;;;23.69;29.43
74675;BME280;63200;48.810;12.352;2023-06-14T12:26:57;97215.97;;;23.48;29.96
74675;BME280;63200;48.810;12.352;2023-06-14T12:29:25;97182.19;;;23.05;30.25
74675;BME280;63200;48.810;12.352;2023-06-14T12:31:50;97220.56;;;23.06;31.10
74675;BME280;63200;48.810;12.352;2023-06-14T12:34:15;97218.91;;;23.02;31.02
74675;BME280;63200;48.810;12.352;2023-06-14T12:36:41;97220.41;;;23.53;30.83
74675;BME280;63200;48.810;12.352;2023-06-14T12:39:07;97219.56;;;24.17;29.75
74675;BME280;63200;48.810;12.352;2023-06-14T12:41:33;97209.50;;;25.61;28.95
74675;BME280;63200;48.810;12.352;2023-06-14T12:43:59;97208.53;;;26.85;27.01
74675;BME280;63200;48.810;12.352;2023-06-14T12:46:26;97217.59;;;27.29;26.61
74675;BME280;63200;48.810;12.352;2023-06-14T12:48:51;97214.03;;;27.28;24.84
74675;BME280;63200;48.810;12.352;2023-06-14T12:51:17;97215.78;;;27.92;24.80
74675;BME280;63200;48.810;12.352;2023-06-14T12:53:42;97218.94;;;27.98;23.89
74675;BME280;63200;48.810;12.352;2023-06-14T12:56:08;97204.22;;;27.94;24.48
74675;BME280;63200;48.810;12.352;2023-06-14T12:58:33;97205.81;;;28.55;24.79
74675;BME280;63200;48.810;12.352;2023-06-14T13:00:58;97214.94;;;27.99;22.88
74675;BME280;63200;48.810;12.352;2023-06-14T13:03:23;97205.63;;;28.28;24.74
74675;BME280;63200;48.810;12.352;2023-06-14T13:05:49;97209.22;;;28.81;23.47
74675;BME280;63200;48.810;12.352;2023-06-14T13:08:14;97206.47;;;28.73;24.10
74675;BME280;63200;48.810;12.352;2023-06-14T13:10:39;97206.22;;;29.02;22.92
74675;BME280;63200;48.810;12.352;2023-06-14T13:13:05;97202.91;;;29.15;22.78